Time;durP1;ratioP1;P1;durP2;ratioP2;P2;SDS_P1;SDS_P2;PMS_P1;PMS_P2;Temp;Humidity;BMP_temperature;BMP_pressure;BME280_temperature;BME280_humidity;BME280_pressure;Samples;Min_cycle;Max_cycle;Signal;HPM_P1;HPM_P2
2022/12/05 00:02:16;;;;;;;30.80;20.92;;;6.10;99.90;;;;;;1921249;74;21109;-84
2022/12/05 00:05:10;;;;;;;30.15;20.75;;;6.10;99.90;;;;;;1904698;75;21093;-84
2022/12/05 00:08:01;;;;;;;30.30;21.10;;;6.20;99.90;;;;;;1926967;74;21104;-84
2022/12/05 00:10:54;;;;;;;30.25;20.77;;;6.20;99.90;;;;;;1927250;74;21146;-84
2022/12/05 00:13:46;;;;;;;27.85;19.82;;;6.20;99.90;;;;;;1842962;77;21173;-84
2022/12/05 00:16:40;;;;;;;31.87;21.42;;;6.20;99.90;;;;;;1904994;75;21212;-86
2022/12/05 00:19:32;;;;;;;32.05;21.70;;;6.20;99.90;;;;;;1904853;75;21083;-85
2022/12/05 00:22:25;;;;;;;34.88;22.25;;;6.20;99.90;;;;;;1904350;75;21062;-84
2022/12/05 00:25:16;;;;;;;31.23;20.92;;;6.20;99.90;;;;;;1904685;75;21330;-84
2022/12/05 00:28:08;;;;;;;30.88;21.60;;;6.20;99.90;;;;;;1925341;74;21099;-84
2022/12/05 00:31:03;;;;;;;33.00;21.65;;;6.20;99.90;;;;;;1904699;75;21118;-84
2022/12/05 00:33:55;;;;;;;31.02;20.55;;;6.20;99.90;;;;;;1904843;75;21143;-85
2022/12/05 00:36:49;;;;;;;30.35;21.10;;;6.20;99.90;;;;;;1910761;75;21220;-84
2022/12/05 00:39:41;;;;;;;30.75;20.75;;;6.20;99.90;;;;;;1866380;76;21159;-85
2022/12/05 00:45:16;;;;;;;31.85;21.52;;;6.20;99.90;;;;;;1935253;72;22661;-86
2022/12/05 00:48:07;;;;;;;32.83;20.48;;;6.20;99.90;;;;;;1888034;75;21180;-85
2022/12/05 00:51:04;;;;;;;32.45;21.15;;;6.10;99.90;;;;;;1879614;75;21102;-85
2022/12/05 00:53:57;;;;;;;30.72;20.37;;;6.20;99.90;;;;;;1872074;76;21103;-85
2022/12/05 00:56:51;;;;;;;33.53;21.23;;;6.20;99.90;;;;;;1886217;75;21059;-87
2022/12/05 00:59:41;;;;;;;34.38;20.95;;;6.10;99.90;;;;;;1893238;75;21124;-87
2022/12/05 01:02:33;;;;;;;34.03;21.42;;;6.10;99.90;;;;;;1884303;75;21080;-85
2022/12/05 01:05:24;;;;;;;35.35;22.58;;;6.10;99.90;;;;;;1891096;75;21105;-85
2022/12/05 01:08:16;;;;;;;35.52;21.27;;;6.20;99.90;;;;;;1873312;75;21106;-85
2022/12/05 01:11:09;;;;;;;36.05;22.93;;;6.10;99.90;;;;;;1882832;75;21128;-85
2022/12/05 01:14:00;;;;;;;37.15;22.07;;;6.10;99.90;;;;;;1904281;75;21161;-85
2022/12/05 01:16:53;;;;;;;36.95;22.77;;;6.10;99.90;;;;;;1883169;75;21149;-85
2022/12/05 01:19:45;;;;;;;38.53;22.20;;;6.10;99.90;;;;;;1886504;75;21099;-84
2022/12/05 01:22:37;;;;;;;39.42;23.47;;;6.10;99.90;;;;;;1872384;75;21147;-85
2022/12/05 01:25:28;;;;;;;30.92;19.77;;;6.00;99.90;;;;;;1902089;75;21229;-85
2022/12/05 01:28:20;;;;;;;34.20;21.27;;;6.00;99.90;;;;;;1895153;75;21128;-87
2022/12/05 01:31:15;;;;;;;32.58;20.15;;;6.00;99.90;;;;;;1875757;75;21117;-85
2022/12/05 01:34:09;;;;;;;32.23;20.25;;;6.00;99.90;;;;;;1872173;75;21105;-85
2022/12/05 01:37:01;;;;;;;32.80;19.37;;;5.90;99.90;;;;;;1884292;75;21111;-84
2022/12/05 01:39:53;;;;;;;33.23;19.57;;;5.90;99.90;;;;;;1897786;75;21672;-85
2022/12/05 01:42:44;;;;;;;32.67;18.85;;;5.90;99.90;;;;;;1894356;75;21170;-87
2022/12/05 01:45:41;;;;;;;31.60;19.45;;;5.90;99.90;;;;;;1872055;75;21123;-87
2022/12/05 01:48:35;;;;;;;34.13;19.48;;;5.90;99.90;;;;;;1885072;75;21611;-86
2022/12/05 01:51:27;;;;;;;31.10;18.75;;;5.90;99.90;;;;;;1893318;75;21165;-85
2022/12/05 01:54:21;;;;;;;29.82;18.55;;;5.90;99.90;;;;;;1874867;75;21117;-85
2022/12/05 01:57:15;;;;;;;30.15;18.55;;;5.90;99.90;;;;;;1898359;75;21140;-85
2022/12/05 02:00:11;;;;;;;32.70;18.80;;;5.90;99.90;;;;;;1874770;75;21127;-86
2022/12/05 02:03:07;;;;;;;30.68;18.02;;;5.90;99.90;;;;;;1888145;75;21106;-85
2022/12/05 02:05:59;;;;;;;30.17;17.45;;;6.00;99.90;;;;;;1893944;75;21164;-85
2022/12/05 02:08:51;;;;;;;31.20;19.02;;;6.00;99.90;;;;;;1876023;75;21103;-86
2022/12/05 02:11:47;;;;;;;27.95;17.27;;;6.00;99.90;;;;;;1885033;75;21177;-85
2022/12/05 02:17:24;;;;;;;32.45;18.30;;;6.00;99.90;;;;;;1945299;72;22692;-85
2022/12/05 02:20:24;;;;;;;28.42;16.45;;;6.00;99.90;;;;;;1828220;77;21144;-85
2022/12/05 02:23:29;;;;;;;27.60;16.80;;;5.90;99.90;;;;;;1895103;75;21110;-85
2022/12/05 02:26:49;;;;;;;30.08;16.45;;;6.00;99.90;;;;;;1904272;75;21167;-86
2022/12/05 02:30:09;;;;;;;26.90;15.90;;;5.90;99.90;;;;;;1898819;74;21157;-86
2022/12/05 02:33:09;;;;;;;28.20;15.88;;;5.90;99.90;;;;;;1906238;75;21168;-85
2022/12/05 02:36:03;;;;;;;26.95;16.70;;;5.90;99.90;;;;;;1902419;75;21102;-85
2022/12/05 02:38:58;;;;;;;28.27;16.30;;;5.80;99.90;;;;;;1917075;75;21055;-85
2022/12/05 02:41:53;;;;;;;28.60;16.05;;;5.80;99.90;;;;;;1907197;75;21071;-85
2022/12/05 02:44:48;;;;;;;29.90;16.00;;;5.70;99.90;;;;;;1912647;73;21155;-85
2022/12/05 02:47:43;;;;;;;28.60;16.55;;;5.70;99.90;;;;;;1928786;73;21083;-86
2022/12/05 02:50:37;;;;;;;28.17;15.15;;;5.80;99.90;;;;;;1902512;75;21487;-86
2022/12/05 02:53:31;;;;;;;30.90;16.42;;;5.70;99.90;;;;;;1892803;75;21046;-86
2022/12/05 02:56:24;;;;;;;28.92;16.97;;;5.70;99.90;;;;;;1875244;76;21164;-86
2022/12/05 02:59:15;;;;;;;27.87;15.90;;;5.70;99.90;;;;;;1906382;75;21135;-86
2022/12/05 03:02:11;;;;;;;27.87;16.15;;;5.70;99.90;;;;;;1905946;75;21176;-85
2022/12/05 03:05:06;;;;;;;30.12;16.05;;;5.70;99.90;;;;;;1901803;75;21079;-86
2022/12/05 03:08:00;;;;;;;27.73;16.23;;;5.70;99.90;;;;;;1897424;75;21102;-85
2022/12/05 03:10:54;;;;;;;29.40;15.45;;;5.70;99.90;;;;;;1895038;75;21094;-86
2022/12/05 03:13:52;;;;;;;26.82;16.40;;;5.70;99.90;;;;;;1895218;75;21059;-85
2022/12/05 03:16:47;;;;;;;28.10;15.38;;;5.70;99.90;;;;;;1901440;74;21203;-85
2022/12/05 03:19:43;;;;;;;26.27;14.47;;;5.70;99.90;;;;;;1914936;74;21161;-85
2022/12/05 03:22:37;;;;;;;25.70;15.45;;;5.70;99.90;;;;;;1902194;74;21100;-85
2022/12/05 03:25:32;;;;;;;22.52;13.55;;;5.60;99.90;;;;;;1908185;74;21113;-85
2022/12/05 03:28:30;;;;;;;22.55;13.38;;;5.70;99.90;;;;;;1921575;74;21165;-86
2022/12/05 03:31:27;;;;;;;19.85;11.95;;;5.60;99.90;;;;;;1921549;74;21086;-85
2022/12/05 03:34:21;;;;;;;19.52;12.20;;;5.60;99.90;;;;;;1917963;74;21119;-85
2022/12/05 03:37:16;;;;;;;17.45;11.08;;;5.50;99.90;;;;;;1918446;74;21208;-85
2022/12/05 03:40:12;;;;;;;16.70;11.10;;;5.50;99.90;;;;;;1921718;74;21581;-85
2022/12/05 03:43:09;;;;;;;16.70;11.10;;;5.50;99.90;;;;;;1921421;74;21200;-86
2022/12/05 03:46:06;;;;;;;15.05;10.28;;;5.50;99.90;;;;;;1921503;74;21192;-87
2022/12/05 03:49:00;;;;;;;16.35;10.78;;;5.50;99.90;;;;;;1919113;74;21180;-85
2022/12/05 03:54:38;;;;;;;14.33;9.15;;;5.50;99.90;;;;;;1966825;72;22329;-86
2022/12/05 03:57:32;;;;;;;13.85;9.03;;;5.50;99.90;;;;;;1916576;75;21140;-86
2022/12/05 04:00:26;;;;;;;13.83;9.85;;;5.50;99.90;;;;;;1916225;75;21117;-85
2022/12/05 04:03:20;;;;;;;13.50;8.70;;;5.50;99.90;;;;;;1916072;75;21171;-87
2022/12/05 04:06:17;;;;;;;12.63;8.75;;;5.60;99.90;;;;;;1916435;75;21122;-86
2022/12/05 04:09:11;;;;;;;13.55;8.18;;;5.50;99.90;;;;;;1914310;75;21181;-85
2022/12/05 04:12:08;;;;;;;10.10;7.22;;;5.50;99.90;;;;;;1943406;73;21107;-86
2022/12/05 04:15:03;;;;;;;8.30;6.17;;;5.50;99.90;;;;;;1933279;73;21095;-86
2022/12/05 04:17:57;;;;;;;6.95;5.62;;;5.50;99.90;;;;;;1917257;75;21091;-86
2022/12/05 04:27:22;;;;;;;9.15;6.45;;;5.50;99.90;;;;;;1911704;73;21080;-86
2022/12/05 04:30:17;;;;;;;8.45;6.47;;;5.50;99.90;;;;;;1924978;73;21208;-84
2022/12/05 04:33:12;;;;;;;9.10;6.55;;;5.60;99.90;;;;;;1949164;73;21086;-84
2022/12/05 04:36:08;;;;;;;9.53;6.60;;;5.50;99.90;;;;;;1917182;75;21086;-84
2022/12/05 04:41:50;;;;;;;10.90;7.87;;;5.40;99.90;;;;;;1965529;72;22189;-86
2022/12/05 04:44:46;;;;;;;12.18;8.00;;;5.40;99.90;;;;;;1917074;75;21101;-85
2022/12/05 04:47:41;;;;;;;12.37;7.60;;;5.40;99.90;;;;;;1916927;75;21400;-85
2022/12/05 04:50:40;;;;;;;10.68;8.38;;;5.50;99.90;;;;;;1917108;75;21126;-84
2022/12/05 04:53:34;;;;;;;11.53;7.53;;;5.40;99.90;;;;;;1932126;73;21086;-85
2022/12/05 04:59:18;;;;;;;11.18;7.55;;;5.50;99.90;;;;;;1970473;72;22185;-86
2022/12/05 05:02:12;;;;;;;9.90;7.03;;;5.40;99.90;;;;;;1939455;73;21838;-85
2022/12/05 05:05:08;;;;;;;10.93;8.23;;;5.40;99.90;;;;;;1917102;75;21066;-85
2022/12/05 05:08:01;;;;;;;11.68;7.65;;;5.30;99.90;;;;;;1917015;75;21098;-84
2022/12/05 05:10:59;;;;;;;10.40;6.70;;;5.30;99.90;;;;;;1939150;73;21115;-85
2022/12/05 05:13:51;;;;;;;8.40;6.10;;;5.40;99.90;;;;;;1920896;73;21164;-85
2022/12/05 05:16:44;;;;;;;8.00;5.90;;;5.40;99.90;;;;;;1950546;73;21090;-85
2022/12/05 05:19:36;;;;;;;7.25;5.67;;;5.40;99.90;;;;;;1933660;73;21173;-85
2022/12/05 05:22:27;;;;;;;7.92;5.72;;;5.40;99.90;;;;;;1916999;75;21168;-85
2022/12/05 05:25:19;;;;;;;6.03;4.67;;;5.40;99.90;;;;;;1916748;75;21119;-84
2022/12/05 05:28:11;;;;;;;6.83;5.05;;;5.40;99.90;;;;;;1917046;75;21082;-84
2022/12/05 05:31:04;;;;;;;7.70;5.28;;;5.40;99.90;;;;;;1916899;75;21618;-84
2022/12/05 05:33:57;;;;;;;10.20;5.17;;;5.40;99.90;;;;;;1930302;73;21163;-84
2022/12/05 05:36:52;;;;;;;6.10;4.50;;;5.30;99.90;;;;;;1919471;73;21113;-84
2022/12/05 05:39:45;;;;;;;8.65;4.70;;;5.30;99.90;;;;;;1916872;75;21231;-85
2022/12/05 05:42:37;;;;;;;6.45;4.60;;;5.30;99.90;;;;;;1917066;75;21586;-84
2022/12/05 05:45:28;;;;;;;5.45;4.20;;;5.30;99.90;;;;;;1917077;75;21562;-84
2022/12/05 05:48:20;;;;;;;5.95;4.20;;;5.30;99.90;;;;;;1916856;75;21155;-84
2022/12/05 05:51:12;;;;;;;5.65;3.80;;;5.30;99.90;;;;;;1916464;75;21118;-84
2022/12/05 05:54:04;;;;;;;4.67;3.47;;;5.30;99.90;;;;;;1916693;75;21699;-84
2022/12/05 05:56:56;;;;;;;4.28;3.25;;;5.20;99.90;;;;;;1916815;74;21156;-87
2022/12/05 05:59:48;;;;;;;4.08;3.08;;;5.20;99.90;;;;;;1901188;74;21119;-84
2022/12/05 06:02:39;;;;;;;4.72;2.98;;;5.10;99.90;;;;;;1922802;73;21054;-84
2022/12/05 06:05:31;;;;;;;4.85;3.65;;;5.20;99.90;;;;;;1916807;75;21050;-84
2022/12/05 06:11:08;;;;;;;3.55;2.40;;;5.10;99.90;;;;;;1951167;72;22084;-84
2022/12/05 06:14:01;;;;;;;3.42;2.85;;;5.00;99.90;;;;;;1884407;75;21176;-84
2022/12/05 06:16:53;;;;;;;3.50;2.50;;;5.00;99.90;;;;;;1882762;75;21157;-84
2022/12/05 06:19:48;;;;;;;2.55;1.98;;;5.10;99.90;;;;;;1902494;75;21056;-84
2022/12/05 06:22:39;;;;;;;2.40;2.05;;;5.00;99.90;;;;;;1884974;75;21080;-84
2022/12/05 06:25:31;;;;;;;3.40;2.60;;;5.00;99.90;;;;;;1882649;75;21067;-84
2022/12/05 06:28:25;;;;;;;2.80;2.20;;;5.00;99.90;;;;;;1882888;75;21106;-85
2022/12/05 06:31:19;;;;;;;3.22;2.20;;;5.10;99.90;;;;;;1885258;75;21118;-85
2022/12/05 06:34:11;;;;;;;3.83;2.40;;;5.00;99.90;;;;;;1877908;75;21136;-84
2022/12/05 06:37:03;;;;;;;3.83;3.00;;;5.00;99.90;;;;;;1893709;75;21209;-84
2022/12/05 06:39:54;;;;;;;4.17;2.20;;;5.10;99.90;;;;;;1872781;75;21304;-84
2022/12/05 06:42:46;;;;;;;3.17;2.15;;;5.10;99.90;;;;;;1872266;76;21196;-84
2022/12/05 06:45:39;;;;;;;3.55;2.42;;;5.00;99.90;;;;;;1888121;75;21165;-84
2022/12/05 06:48:31;;;;;;;4.45;3.05;;;4.90;99.90;;;;;;1893290;75;21188;-84
2022/12/05 06:51:36;;;;;;;4.80;2.67;;;4.80;99.90;;;;;;1894420;75;21167;-83
2022/12/05 06:54:41;;;;;;;4.20;2.98;;;4.90;99.90;;;;;;1897976;75;21110;-86
2022/12/05 06:57:33;;;;;;;4.12;2.77;;;4.90;99.90;;;;;;1883716;73;21130;-85
2022/12/05 07:03:43;;;;;;;3.90;2.87;;;5.00;99.90;;;;;;1903461;73;21152;-84
2022/12/05 07:06:35;;;;;;;6.03;3.40;;;5.10;99.90;;;;;;1885804;75;21180;-84
2022/12/05 07:09:46;;;;;;;6.35;3.40;;;5.00;99.90;;;;;;1871321;75;21189;-84
2022/12/05 07:12:41;;;;;;;5.28;3.58;;;5.00;99.90;;;;;;1881866;74;21143;-84
2022/12/05 07:15:33;;;;;;;4.95;3.50;;;5.10;99.90;;;;;;1882127;75;21096;-84
2022/12/05 07:18:25;;;;;;;6.78;4.78;;;5.10;99.90;;;;;;1892116;75;21102;-84
2022/12/05 07:21:17;;;;;;;7.37;5.15;;;5.10;99.90;;;;;;1898419;73;21090;-84
2022/12/05 07:24:09;;;;;;;7.17;5.30;;;5.10;99.90;;;;;;1882637;75;21554;-84
2022/12/05 07:27:00;;;;;;;7.50;5.33;;;5.10;99.90;;;;;;1892993;74;21103;-84
2022/12/05 07:29:52;;;;;;;7.42;5.53;;;5.00;99.90;;;;;;1871638;75;21176;-84
2022/12/05 07:32:44;;;;;;;7.37;5.10;;;5.10;99.90;;;;;;1889170;75;21276;-86
2022/12/05 07:35:36;;;;;;;7.60;5.67;;;5.20;99.90;;;;;;1884095;75;21100;-85
2022/12/05 07:38:30;;;;;;;7.47;5.28;;;5.20;99.90;;;;;;1882041;75;21136;-84
2022/12/05 07:41:25;;;;;;;7.30;5.70;;;5.30;99.90;;;;;;1878498;75;21150;-85
2022/12/05 07:44:27;;;;;;;8.08;6.05;;;5.30;99.90;;;;;;1901590;75;21174;-84
2022/12/05 07:47:19;;;;;;;6.70;5.70;;;5.30;99.90;;;;;;1876833;75;21102;-84
2022/12/05 07:50:17;;;;;;;8.10;6.05;;;5.30;99.90;;;;;;1883239;75;21107;-84
2022/12/05 07:53:08;;;;;;;5.72;4.25;;;5.40;99.90;;;;;;1873858;75;21110;-84
2022/12/05 07:56:16;;;;;;;6.53;4.40;;;5.30;99.90;;;;;;1892930;74;21060;-85
2022/12/05 07:59:22;;;;;;;6.50;4.08;;;5.30;99.90;;;;;;1893351;75;21193;-84
2022/12/05 08:02:22;;;;;;;7.17;5.33;;;5.20;99.90;;;;;;1892444;75;21374;-85
2022/12/05 08:05:15;;;;;;;6.53;4.35;;;5.20;99.90;;;;;;1873005;75;21126;-85
2022/12/05 08:10:47;;;;;;;6.75;4.42;;;5.20;99.90;;;;;;1950594;72;22365;-85
2022/12/05 08:13:45;;;;;;;6.45;5.08;;;5.20;99.90;;;;;;1902828;75;21530;-84
2022/12/05 08:16:50;;;;;;;9.05;6.00;;;5.20;99.90;;;;;;1904128;75;21161;-85
2022/12/05 08:22:26;;;;;;;7.80;5.62;;;5.20;99.90;;;;;;1933342;72;22279;-84
2022/12/05 08:25:17;;;;;;;8.38;6.25;;;5.30;99.90;;;;;;1899507;75;21139;-85
2022/12/05 08:28:09;;;;;;;9.35;6.78;;;5.40;99.90;;;;;;1907522;75;21164;-84
2022/12/05 08:31:07;;;;;;;10.75;8.40;;;5.40;99.90;;;;;;1904349;75;21602;-84
2022/12/05 08:34:06;;;;;;;11.90;9.95;;;5.40;99.90;;;;;;1871979;76;21220;-84
2022/12/05 08:37:17;;;;;;;12.70;10.20;;;5.40;99.90;;;;;;1886406;75;21160;-84
2022/12/05 08:40:11;;;;;;;12.63;9.70;;;5.40;99.90;;;;;;1903906;75;21123;-85
2022/12/05 08:43:03;;;;;;;9.53;7.47;;;5.50;99.90;;;;;;1905264;73;21389;-84
2022/12/05 08:45:55;;;;;;;9.45;7.85;;;5.50;99.90;;;;;;1905678;75;21062;-85
2022/12/05 08:48:47;;;;;;;12.93;9.35;;;5.60;99.90;;;;;;1903964;75;21162;-84
2022/12/05 08:51:40;;;;;;;11.00;8.83;;;5.60;99.90;;;;;;1884049;75;21153;-85
2022/12/05 08:54:32;;;;;;;12.85;8.95;;;5.60;99.90;;;;;;1904493;75;21125;-84
2022/12/05 08:57:23;;;;;;;10.05;7.03;;;5.60;99.90;;;;;;1895205;74;21066;-85
2022/12/05 09:00:17;;;;;;;9.85;7.65;;;5.60;99.90;;;;;;1904280;75;21114;-86
2022/12/05 09:03:11;;;;;;;11.38;8.20;;;5.50;99.90;;;;;;1886649;75;21202;-85
2022/12/05 09:06:09;;;;;;;9.78;7.35;;;5.60;99.90;;;;;;1904578;75;21547;-84
2022/12/05 09:09:04;;;;;;;10.30;7.92;;;5.70;99.90;;;;;;1904010;75;21153;-83
2022/12/05 09:11:57;;;;;;;10.75;7.35;;;5.70;99.90;;;;;;1900534;74;21091;-84
2022/12/05 09:14:50;;;;;;;10.65;7.00;;;5.70;99.90;;;;;;1904551;75;21180;-85
2022/12/05 09:17:41;;;;;;;9.20;6.83;;;5.70;99.90;;;;;;1885058;75;21088;-84
2022/12/05 09:20:49;;;;;;;9.35;7.35;;;5.80;99.90;;;;;;1904281;75;21134;-85
2022/12/05 09:23:49;;;;;;;8.13;6.42;;;5.90;99.90;;;;;;1911302;75;21174;-84
2022/12/05 09:26:45;;;;;;;7.80;5.37;;;5.80;99.90;;;;;;1895448;75;21168;-84
2022/12/05 09:29:37;;;;;;;7.87;5.30;;;5.90;99.90;;;;;;1904420;75;21117;-84
2022/12/05 09:32:29;;;;;;;7.78;5.83;;;5.90;99.90;;;;;;1910834;75;21541;-84
2022/12/05 09:35:20;;;;;;;8.53;5.72;;;6.00;99.90;;;;;;1903918;75;21125;-84
2022/12/05 09:38:12;;;;;;;8.75;5.58;;;6.00;99.90;;;;;;1903891;75;21148;-84
2022/12/05 09:41:11;;;;;;;7.90;5.97;;;6.10;99.90;;;;;;1909047;75;21164;-85
2022/12/05 09:44:06;;;;;;;10.25;6.35;;;6.20;99.90;;;;;;1903837;75;21095;-85
2022/12/05 09:47:07;;;;;;;13.18;8.30;;;6.30;99.90;;;;;;1891085;75;21247;-85
2022/12/05 09:52:45;;;;;;;12.10;8.93;;;6.30;99.90;;;;;;1957184;72;22179;-85
2022/12/05 09:55:49;;;;;;;10.50;8.03;;;6.50;99.90;;;;;;1883249;75;21123;-84
2022/12/05 09:58:44;;;;;;;12.03;8.20;;;6.60;99.90;;;;;;1890658;75;21063;-84
2022/12/05 10:01:40;;;;;;;14.45;9.28;;;6.50;99.90;;;;;;1872341;75;21059;-84
2022/12/05 10:04:44;;;;;;;12.60;9.08;;;6.50;99.90;;;;;;1881724;75;21079;-84
2022/12/05 10:07:46;;;;;;;14.98;9.55;;;6.40;99.90;;;;;;1878788;75;21143;-84
2022/12/05 10:13:33;;;;;;;15.10;11.63;;;6.30;99.90;;;;;;1953637;72;22263;-84
2022/12/05 10:16:28;;;;;;;12.53;10.50;;;6.30;99.90;;;;;;1899929;75;21172;-84
2022/12/05 10:19:23;;;;;;;14.80;11.55;;;6.40;99.90;;;;;;1896417;75;21216;-84
2022/12/05 10:22:21;;;;;;;17.20;11.80;;;6.50;99.90;;;;;;1915895;75;21099;-84
2022/12/05 10:25:15;;;;;;;15.65;11.63;;;6.60;99.90;;;;;;1911415;75;21669;-84
2022/12/05 10:28:12;;;;;;;15.00;10.68;;;6.70;99.90;;;;;;1915572;75;21598;-85
2022/12/05 10:31:07;;;;;;;16.10;11.45;;;6.80;99.90;;;;;;1882969;75;21184;-85
2022/12/05 10:34:09;;;;;;;14.35;11.10;;;6.70;99.90;;;;;;1882012;75;21111;-84
2022/12/05 10:37:03;;;;;;;15.88;11.88;;;6.60;99.90;;;;;;1892905;75;21086;-84
2022/12/05 10:42:36;;;;;;;13.22;10.25;;;6.70;99.90;;;;;;1931288;72;22318;-85
2022/12/05 10:45:28;;;;;;;12.43;9.65;;;6.70;99.90;;;;;;1898491;75;21460;-84
2022/12/05 10:48:21;;;;;;;12.03;9.25;;;6.70;99.90;;;;;;1894861;75;21175;-84
2022/12/05 10:51:16;;;;;;;13.08;9.60;;;6.60;99.90;;;;;;1894576;75;21098;-84
2022/12/05 10:54:17;;;;;;;13.25;10.13;;;6.70;99.90;;;;;;1894305;75;21121;-85
2022/12/05 10:57:21;;;;;;;12.05;9.78;;;6.60;99.90;;;;;;1892997;73;21179;-84
2022/12/05 11:00:17;;;;;;;12.75;9.70;;;6.50;99.90;;;;;;1883909;76;21090;-84
2022/12/05 11:03:18;;;;;;;13.80;10.23;;;6.40;99.90;;;;;;1897301;75;21176;-86
2022/12/05 11:06:20;;;;;;;11.90;9.80;;;6.40;99.90;;;;;;1894645;75;21266;-84
2022/12/05 11:09:18;;;;;;;13.05;9.43;;;6.30;99.90;;;;;;1886768;75;21059;-85
2022/12/05 11:12:19;;;;;;;12.13;9.20;;;6.40;99.90;;;;;;1905823;73;21087;-86
2022/12/05 11:15:23;;;;;;;14.23;9.90;;;6.40;99.90;;;;;;1884297;75;21055;-86
2022/12/05 11:18:27;;;;;;;13.32;8.68;;;6.50;99.90;;;;;;1896647;75;21570;-86
2022/12/05 11:21:19;;;;;;;12.88;9.78;;;6.60;99.90;;;;;;1901845;75;21131;-85
2022/12/05 11:24:24;;;;;;;13.25;9.58;;;6.70;99.90;;;;;;1903564;75;21062;-84
2022/12/05 11:27:27;;;;;;;12.25;9.10;;;6.80;99.90;;;;;;1895246;73;21436;-85
2022/12/05 11:30:27;;;;;;;13.40;9.05;;;6.80;99.90;;;;;;1908097;75;21138;-86
2022/12/05 11:33:24;;;;;;;12.68;9.38;;;6.90;99.90;;;;;;1905984;75;21176;-85
2022/12/05 11:36:19;;;;;;;9.33;7.35;;;6.90;99.90;;;;;;1905603;75;21047;-85
2022/12/05 11:39:13;;;;;;;11.85;7.35;;;7.00;99.90;;;;;;1897040;75;21177;-85
2022/12/05 11:45:23;;;;;;;12.70;9.20;;;7.10;99.90;;;;;;1957282;72;22260;-84
2022/12/05 11:48:36;;;;;;;10.65;8.35;;;7.20;99.90;;;;;;1898175;74;21206;-84
2022/12/05 11:51:38;;;;;;;11.48;7.90;;;7.20;99.90;;;;;;1899550;75;21103;-85
2022/12/05 11:54:42;;;;;;;10.48;8.48;;;7.20;99.90;;;;;;1899420;75;21155;-84
2022/12/05 11:58:13;;;;;;;12.30;9.45;;;7.10;99.90;;;;;;1882222;75;21075;-84
2022/12/05 12:01:10;;;;;;;13.55;9.58;;;7.20;99.90;;;;;;1901607;75;21145;-86
2022/12/05 12:04:37;;;;;;;12.85;10.32;;;7.20;99.90;;;;;;1897518;75;21661;-84
2022/12/05 12:07:48;;;;;;;13.45;10.00;;;7.20;99.90;;;;;;1898018;75;21172;-84
2022/12/05 12:10:43;;;;;;;12.45;9.60;;;7.20;99.90;;;;;;1903236;75;21208;-84
2022/12/05 12:13:51;;;;;;;12.05;9.00;;;7.30;99.90;;;;;;1887942;75;21221;-85
2022/12/05 12:16:44;;;;;;;;;;;7.40;99.90;;;;;;1902389;75;21109;-84
2022/12/05 12:19:48;;;;;;;10.28;8.08;;;7.40;99.90;;;;;;1900962;75;20153;-85
2022/12/05 12:22:57;;;;;;;9.00;7.42;;;7.40;99.90;;;;;;1883125;75;21164;-86
2022/12/05 12:25:53;;;;;;;7.70;6.28;;;7.50;99.90;;;;;;1899496;74;21114;-84
2022/12/05 12:28:48;;;;;;;7.75;5.97;;;7.50;99.90;;;;;;1878612;75;21106;-84
2022/12/05 12:31:48;;;;;;;8.20;7.12;;;7.70;99.90;;;;;;1892224;75;21119;-84
2022/12/05 12:35:15;;;;;;;12.18;8.50;;;7.80;99.90;;;;;;1902032;75;21052;-83
2022/12/05 12:38:19;;;;;;;13.65;9.13;;;7.90;99.90;;;;;;1891563;75;21132;-84
2022/12/05 12:41:14;;;;;;;10.48;8.53;;;8.00;99.90;;;;;;1898416;75;21212;-84
2022/12/05 12:44:12;;;;;;;12.30;8.95;;;7.90;99.90;;;;;;1902834;74;21118;-84
2022/12/05 12:49:51;;;;;;;16.50;10.63;;;7.90;99.90;;;;;;1944012;72;22215;-86
2022/12/05 12:53:05;;;;;;;13.00;10.32;;;7.90;99.90;;;;;;1863646;76;21119;-85
2022/12/05 12:56:01;;;;;;;14.15;10.68;;;8.00;99.90;;;;;;1919264;73;21107;-84
2022/12/05 12:58:56;;;;;;;14.50;11.10;;;8.00;99.90;;;;;;1929038;73;21202;-84
2022/12/05 13:01:52;;;;;;;15.00;11.00;;;8.10;99.90;;;;;;1917002;75;21090;-84
2022/12/05 13:04:49;;;;;;;15.23;10.72;;;8.20;99.90;;;;;;1916834;75;21236;-84
2022/12/05 13:07:44;;;;;;;16.12;10.68;;;8.20;99.90;;;;;;1916972;73;21386;-85
2022/12/05 13:10:40;;;;;;;13.80;10.00;;;8.30;99.90;;;;;;1902898;75;21141;-84
2022/12/05 13:13:35;;;;;;;14.87;10.18;;;8.40;99.90;;;;;;1916903;75;21084;-85
2022/12/05 13:16:31;;;;;;;13.05;9.88;;;8.50;99.90;;;;;;1916654;73;21122;-84
2022/12/05 13:19:29;;;;;;;14.33;9.48;;;8.80;99.90;;;;;;1916770;75;21169;-85
2022/12/05 13:22:23;;;;;;;15.20;9.50;;;8.90;99.90;;;;;;1916821;75;21058;-84
2022/12/05 13:25:17;;;;;;;14.45;9.13;;;9.00;99.90;;;;;;1916658;75;21105;-84
2022/12/05 13:28:12;;;;;;;12.20;9.60;;;9.00;99.90;;;;;;1916657;73;21183;-84
2022/12/05 13:31:05;;;;;;;14.78;10.43;;;9.00;99.90;;;;;;1916631;75;21201;-84
2022/12/05 13:33:56;;;;;;;12.58;9.98;;;9.10;99.90;;;;;;1915578;73;21206;-84
2022/12/05 13:43:09;;;;;;;12.68;9.70;;;8.90;99.90;;;;;;1916207;73;21098;-85
2022/12/05 13:46:05;;;;;;;12.95;9.53;;;8.90;99.90;;;;;;1879590;76;21186;-84
2022/12/05 13:51:42;;;;;;;13.22;9.98;;;8.90;99.90;;;;;;1954767;72;22185;-86
2022/12/05 13:54:35;;;;;;;12.53;9.58;;;8.90;99.90;;;;;;1909829;74;21110;-86
2022/12/05 13:57:52;;;;;;;13.78;9.63;;;8.90;99.90;;;;;;1885442;75;21122;-84
2022/12/05 14:00:43;;;;;;;13.00;9.85;;;9.00;99.90;;;;;;1906011;75;21079;-85
2022/12/05 14:07:00;;;;;;;13.10;10.00;;;8.80;99.90;;;;;;1953888;72;22190;-85
2022/12/05 14:09:54;;;;;;;13.68;10.28;;;8.70;99.90;;;;;;1899595;75;21134;-85
2022/12/05 14:12:52;;;;;;;14.45;10.15;;;8.70;99.90;;;;;;1885422;75;21089;-84
2022/12/05 14:16:12;;;;;;;;;;;8.60;99.90;;;;;;1907680;75;21106;-84
2022/12/05 14:19:06;;;;;;;12.33;9.48;;;8.60;99.90;;;;;;1880037;76;20206;-84
2022/12/05 14:22:06;;;;;;;13.38;9.68;;;8.50;99.90;;;;;;1902085;75;22277;-84
2022/12/05 14:25:02;;;;;;;12.85;9.43;;;8.50;99.90;;;;;;1884543;75;21154;-84
2022/12/05 14:27:57;;;;;;;13.80;9.73;;;8.50;99.90;;;;;;1906661;75;21208;-86
2022/12/05 14:30:54;;;;;;;11.95;9.28;;;8.40;99.90;;;;;;1898586;75;21131;-86
2022/12/05 14:34:04;;;;;;;14.45;9.38;;;8.30;99.90;;;;;;1918695;74;21107;-84
2022/12/05 14:37:02;;;;;;;11.70;9.13;;;8.40;99.90;;;;;;1849293;76;21118;-84
2022/12/05 14:39:56;;;;;;;14.10;9.20;;;8.40;99.90;;;;;;1905651;75;21114;-84
2022/12/05 14:42:56;;;;;;;12.50;9.23;;;8.40;99.90;;;;;;1905758;73;21106;-84
2022/12/05 14:45:56;;;;;;;12.58;8.73;;;8.40;99.90;;;;;;1890852;75;21740;-84
2022/12/05 14:48:49;;;;;;;12.18;9.00;;;8.50;99.90;;;;;;1900692;75;21133;-84
2022/12/05 14:54:43;;;;;;;13.95;8.68;;;8.30;99.90;;;;;;1947329;72;22346;-85
2022/12/05 15:00:22;;;;;;;11.95;8.50;;;8.20;99.90;;;;;;1955689;72;23448;-85
2022/12/05 15:06:01;;;;;;;14.80;10.82;;;7.90;99.90;;;;;;1953019;72;22323;-85
2022/12/05 15:08:58;;;;;;;12.80;9.85;;;7.80;99.90;;;;;;1893863;75;21176;-84
2022/12/05 15:11:52;;;;;;;13.25;9.85;;;7.70;99.90;;;;;;1895158;75;21142;-86
2022/12/05 15:14:53;;;;;;;13.43;9.05;;;7.70;99.90;;;;;;1886123;75;21727;-85
2022/12/05 15:17:52;;;;;;;12.93;9.20;;;7.60;99.90;;;;;;1902626;75;21145;-84
2022/12/05 15:23:46;;;;;;;14.47;9.75;;;7.40;99.90;;;;;;1954166;72;22237;-85
2022/12/05 15:26:40;;;;;;;13.98;9.05;;;7.40;99.90;;;;;;1898572;75;21130;-84
2022/12/05 15:29:35;;;;;;;11.90;8.53;;;7.40;99.90;;;;;;1896971;75;21106;-85
2022/12/05 15:32:28;;;;;;;14.45;10.10;;;7.30;99.90;;;;;;1883823;75;21102;-85
2022/12/05 15:38:44;;;;;;;15.48;9.85;;;7.20;99.90;;;;;;1883977;75;21196;-85
2022/12/05 15:41:37;;;;;;;17.80;10.23;;;7.10;99.90;;;;;;1891377;75;21051;-86
2022/12/05 15:44:32;;;;;;;12.82;9.18;;;7.10;99.90;;;;;;1894589;75;21094;-85
2022/12/05 15:47:26;;;;;;;13.40;9.60;;;7.00;99.90;;;;;;1895925;75;21187;-84
2022/12/05 15:50:22;;;;;;;14.15;10.55;;;7.00;99.90;;;;;;1899633;75;21172;-84
2022/12/05 15:56:00;;;;;;;16.02;9.98;;;6.80;99.90;;;;;;1928578;72;22217;-85
2022/12/05 15:58:55;;;;;;;13.78;10.13;;;6.80;99.90;;;;;;1884214;75;21118;-86
2022/12/05 16:01:51;;;;;;;14.80;10.43;;;6.70;99.90;;;;;;1916640;75;21148;-86
2022/12/05 16:04:48;;;;;;;16.02;9.30;;;6.70;99.90;;;;;;1902852;75;21155;-85
2022/12/05 16:07:39;;;;;;;13.30;9.65;;;6.60;99.90;;;;;;1907111;75;21617;-84
2022/12/05 16:10:32;;;;;;;16.12;10.90;;;6.50;99.90;;;;;;1905671;75;21051;-87
2022/12/05 16:13:27;;;;;;;14.95;9.40;;;6.50;99.90;;;;;;1904309;75;21226;-84
2022/12/05 16:16:21;;;;;;;16.90;11.10;;;6.40;99.90;;;;;;1901073;75;21102;-86
2022/12/05 16:19:18;;;;;;;15.48;10.40;;;6.40;99.90;;;;;;1883797;75;21131;-86
2022/12/05 16:22:16;;;;;;;16.35;10.82;;;6.40;99.90;;;;;;1900949;75;21127;-85
2022/12/05 16:25:16;;;;;;;13.70;10.08;;;6.30;99.90;;;;;;1891470;75;21121;-85
2022/12/05 16:28:18;;;;;;;16.35;10.40;;;6.30;99.90;;;;;;1891355;75;21151;-85
2022/12/05 16:31:16;;;;;;;15.15;10.58;;;6.30;99.90;;;;;;1881469;76;22129;-85